Time;durP1;ratioP1;P1;durP2;ratioP2;P2;SDS_P1;SDS_P2;PMS_P1;PMS_P2;Temp;Humidity;BMP_temperature;BMP_pressure;BME280_temperature;BME280_humidity;BME280_pressure;Samples;Min_cycle;Max_cycle;Signal;HPM_P1;HPM_P2
2022/08/19 00:01:53;;;;;;;17.50;13.10;;;;;;;21.42;74.70;97920.63;106418;1277;138444;-77
2022/08/19 00:04:25;;;;;;;14.90;13.30;;;;;;;21.38;74.86;97925.09;106216;1275;26624;-76
2022/08/19 00:06:53;;;;;;;14.40;13.00;;;;;;;21.36;74.92;97924.77;105917;1274;25365;-76
2022/08/19 00:09:21;;;;;;;14.70;13.20;;;;;;;21.34;75.06;97917.76;106257;1274;22541;-76
2022/08/19 00:11:50;;;;;;;14.80;12.90;;;;;;;21.32;75.08;97915.21;106260;1274;24329;-77
2022/08/19 00:14:18;;;;;;;13.90;12.50;;;;;;;21.29;75.12;97916.36;106177;1278;138427;-77
2022/08/19 00:16:47;;;;;;;14.80;13.30;;;;;;;21.27;75.28;97914.38;106285;1277;22563;-76
2022/08/19 00:19:15;;;;;;;15.10;13.00;;;;;;;21.26;75.36;97912.61;106023;1281;138698;-76
2022/08/19 00:21:43;;;;;;;15.40;13.30;;;;;;;21.25;75.38;97909.86;105966;1277;22645;-76
2022/08/19 00:24:11;;;;;;;15.70;13.90;;;;;;;21.23;75.32;97914.52;105934;1277;22575;-76
2022/08/19 00:26:39;;;;;;;16.40;14.70;;;;;;;21.21;75.53;97914.36;105896;1277;138637;-76
2022/08/19 00:29:08;;;;;;;17.40;12.80;;;;;;;21.19;75.67;97919.18;106101;1279;25252;-76
2022/08/19 00:31:35;;;;;;;16.70;13.50;;;;;;;21.17;75.62;97917.52;105998;1277;138722;-76
2022/08/19 00:34:02;;;;;;;15.70;14.20;;;;;;;21.16;75.72;97917.86;106174;1278;23386;-76
2022/08/19 00:36:30;;;;;;;16.50;14.40;;;;;;;21.14;75.79;97920.37;106275;1278;22713;-76
2022/08/19 00:38:56;;;;;;;15.20;13.60;;;;;;;21.11;75.92;97919.52;106302;1277;138488;-77
2022/08/19 00:41:24;;;;;;;14.80;13.30;;;;;;;21.07;75.80;97917.31;106026;1277;24202;-78
2022/08/19 00:44:02;;;;;;;15.80;13.90;;;;;;;21.05;76.03;97919.21;106185;1277;138949;-76
2022/08/19 00:46:29;;;;;;;16.10;14.50;;;;;;;21.02;75.95;97917.91;106013;1278;22553;-76
2022/08/19 00:48:57;;;;;;;16.70;13.90;;;;;;;21.01;76.04;97920.51;105938;1278;139431;-77
2022/08/19 00:51:27;;;;;;;16.60;13.90;;;;;;;20.97;76.22;97919.02;106102;1274;22708;-77
2022/08/19 00:53:56;;;;;;;17.00;14.40;;;;;;;20.95;76.14;97918.83;106498;1277;24303;-77
2022/08/19 00:56:23;;;;;;;17.20;13.90;;;;;;;20.92;76.32;97921.08;106095;1277;138883;-77
2022/08/19 00:58:50;;;;;;;14.60;13.10;;;;;;;20.90;76.50;97916.06;106226;1277;22693;-76
2022/08/19 01:01:17;;;;;;;15.50;13.60;;;;;;;20.87;76.56;97917.53;106362;1277;138581;-76
2022/08/19 01:03:44;;;;;;;18.10;13.90;;;;;;;20.84;76.61;97919.11;106367;1277;24203;-77
2022/08/19 01:06:11;;;;;;;15.60;13.90;;;;;;;20.82;76.63;97915.19;106053;1277;25331;-77
2022/08/19 01:08:38;;;;;;;17.70;13.60;;;;;;;20.80;76.90;97909.45;105999;1277;138655;-76
2022/08/19 01:11:05;;;;;;;16.70;13.60;;;;;;;20.77;76.87;97906.88;106018;1277;22751;-76
2022/08/19 01:13:37;;;;;;;15.20;13.10;;;;;;;20.74;76.88;97910.13;105907;1277;139093;-76
2022/08/19 01:16:08;;;;;;;18.80;13.80;;;;;;;20.71;76.85;97902.88;106244;1277;24240;-77
2022/08/19 01:18:40;;;;;;;15.80;13.00;;;;;;;20.69;77.05;97903.88;106089;1277;22589;-77
2022/08/19 01:21:24;;;;;;;15.10;13.30;;;;;;;20.64;77.06;97897.20;105835;1278;138813;-77
2022/08/19 01:23:51;;;;;;;15.60;13.50;;;;;;;20.61;77.19;97893.38;106047;1277;22572;-76
2022/08/19 01:26:22;;;;;;;16.20;14.40;;;;;;;20.57;77.36;97884.36;106372;1277;138506;-76
2022/08/19 01:28:55;;;;;;;15.40;13.80;;;;;;;20.54;77.69;97883.01;105905;1278;22558;-76
2022/08/19 01:31:26;;;;;;;14.90;12.80;;;;;;;20.51;77.76;97880.61;106194;1277;138961;-77
2022/08/19 01:33:55;;;;;;;18.40;13.90;;;;;;;20.48;77.84;97880.08;105955;1277;22640;-76
2022/08/19 01:36:31;;;;;;;15.40;13.90;;;;;;;20.46;77.92;97880.06;106476;1276;25459;-76
2022/08/19 01:38:59;;;;;;;15.60;13.90;;;;;;;20.43;78.12;97871.63;106216;1274;138653;-76
2022/08/19 01:41:26;;;;;;;15.70;14.00;;;;;;;20.40;78.33;97871.58;106099;1274;25349;-76
2022/08/19 01:43:54;;;;;;;16.00;13.60;;;;;;;20.40;78.30;97873.60;106567;1274;138585;-78
2022/08/19 01:46:21;;;;;;;16.80;14.30;;;;;;;20.39;78.41;97881.38;106145;1277;22634;-78
2022/08/19 01:48:48;;;;;;;15.00;13.10;;;;;;;20.38;78.46;97880.34;106191;1277;25442;-77
2022/08/19 01:51:15;;;;;;;18.20;13.40;;;;;;;20.38;78.44;97878.42;106064;1277;138537;-77
2022/08/19 01:53:42;;;;;;;19.30;14.40;;;;;;;20.34;78.53;97882.02;106065;1279;22574;-77
2022/08/19 01:56:09;;;;;;;15.90;14.20;;;;;;;20.29;78.66;97882.27;106088;1278;138621;-78
2022/08/19 01:58:46;;;;;;;17.40;14.10;;;;;;;20.25;78.61;97882.64;105906;1276;24300;-77
2022/08/19 02:01:13;;;;;;;16.00;13.80;;;;;;;20.20;78.75;97883.38;105851;1278;139783;-76
2022/08/19 02:03:40;;;;;;;14.80;13.30;;;;;;;20.17;78.87;97892.21;106029;1276;22719;-76
2022/08/19 02:06:07;;;;;;;17.80;14.40;;;;;;;20.15;79.07;97891.61;105906;1277;22566;-78
2022/08/19 02:08:36;;;;;;;15.20;13.30;;;;;;;20.09;78.94;97891.05;106050;1277;138599;-78
2022/08/19 02:11:04;;;;;;;17.30;14.00;;;;;;;20.01;78.90;97888.69;105812;1277;24298;-78
2022/08/19 02:13:32;;;;;;;16.70;14.30;;;;;;;19.96;79.12;97887.45;106303;1276;138671;-77
2022/08/19 02:15:59;;;;;;;17.30;13.90;;;;;;;19.94;79.22;97885.80;105738;1280;22574;-78
2022/08/19 02:18:26;;;;;;;19.20;15.00;;;;;;;19.92;79.33;97878.95;105959;1277;22700;-78
2022/08/19 02:20:53;;;;;;;16.80;13.70;;;;;;;19.89;79.35;97874.40;106203;1277;138584;-78
2022/08/19 02:23:20;;;;;;;17.10;14.20;;;;;;;19.86;79.59;97865.02;106063;1278;22684;-78
2022/08/19 02:25:48;;;;;;;15.70;14.10;;;;;;;19.83;79.84;97871.58;106083;1277;138692;-78
2022/08/19 02:28:15;;;;;;;16.60;14.00;;;;;;;19.83;79.89;97869.49;106197;1277;24236;-78
2022/08/19 02:30:42;;;;;;;17.40;14.30;;;;;;;19.82;80.07;97870.02;106026;1277;25248;-78
2022/08/19 02:33:09;;;;;;;16.60;14.40;;;;;;;19.80;80.09;97862.55;106350;1277;138623;-78
2022/08/19 02:35:36;;;;;;;17.20;14.00;;;;;;;19.79;80.31;97867.23;105973;1276;24069;-77
2022/08/19 02:41:02;;;;;;;16.00;13.90;;;;;;;19.74;80.42;97867.02;106023;1277;22544;-77
2022/08/19 02:43:32;;;;;;;16.00;14.30;;;;;;;19.71;80.53;97871.72;105841;1277;138829;-77
2022/08/19 02:45:59;;;;;;;15.80;14.10;;;;;;;19.69;80.64;97875.66;106187;1277;22562;-77
2022/08/19 02:48:26;;;;;;;16.50;14.20;;;;;;;19.67;80.57;97879.45;106309;1277;22729;-77
2022/08/19 02:50:56;;;;;;;16.60;13.80;;;;;;;19.65;80.70;97877.68;105999;1277;138811;-77
2022/08/19 02:53:26;;;;;;;16.40;14.60;;;;;;;19.64;80.71;97869.83;106076;1277;22558;-78
2022/08/19 02:55:54;;;;;;;16.70;14.50;;;;;;;19.62;80.81;97869.21;105911;1277;138484;-77
2022/08/19 02:58:22;;;;;;;19.10;14.10;;;;;;;19.59;80.85;97873.05;106033;1277;22569;-77
2022/08/19 03:00:53;;;;;;;16.10;14.40;;;;;;;19.56;81.02;97878.49;106328;1277;22564;-78
2022/08/19 03:03:20;;;;;;;17.80;14.80;;;;;;;19.54;81.21;97884.30;105839;1277;25409;-78
2022/08/19 03:05:47;;;;;;;17.20;15.40;;;;;;;19.50;81.21;97889.97;105882;1279;23206;-78
2022/08/19 03:08:14;;;;;;;16.10;14.40;;;;;;;19.46;81.29;97894.44;105918;1276;138882;-78
2022/08/19 03:10:44;;;;;;;16.30;14.60;;;;;;;19.44;81.38;97896.54;106297;1276;24235;-78
2022/08/19 03:13:14;;;;;;;17.70;14.70;;;;;;;19.43;81.49;97895.29;105996;1276;139652;-80
2022/08/19 03:15:43;;;;;;;16.10;14.30;;;;;;;19.42;81.46;97895.29;106096;1276;22611;-80
2022/08/19 03:18:11;;;;;;;17.00;14.10;;;;;;;19.41;81.77;97895.87;106466;1276;24506;-78
2022/08/19 03:20:46;;;;;;;17.60;14.40;;;;;;;19.37;81.84;97902.16;106235;1277;138439;-80
2022/08/19 03:23:15;;;;;;;20.30;15.50;;;;;;;19.33;81.86;97898.39;106130;1277;25375;-79
2022/08/19 03:25:45;;;;;;;17.50;14.60;;;;;;;19.31;82.04;97900.76;106157;1277;138558;-81
2022/08/19 03:28:14;;;;;;;17.10;15.20;;;;;;;19.30;82.05;97898.63;106309;1276;25326;-80
2022/08/19 03:30:55;;;;;;;17.40;15.00;;;;;;;19.29;82.25;97892.61;106443;1277;24478;-80
2022/08/19 03:33:23;;;;;;;16.90;14.00;;;;;;;19.29;82.26;97895.61;106453;1276;25270;-79
2022/08/19 03:36:16;;;;;;;16.10;14.40;;;;;;;19.29;82.36;97893.52;106205;1277;25510;-79
2022/08/19 03:38:52;;;;;;;17.00;14.50;;;;;;;19.27;82.52;97895.27;106136;1280;138679;-80
2022/08/19 03:41:22;;;;;;;18.00;14.30;;;;;;;19.27;82.63;97898.00;105985;1277;25340;-80
2022/08/19 03:43:49;;;;;;;16.10;14.40;;;;;;;19.26;82.75;97900.11;106198;1277;138724;-77
2022/08/19 03:46:22;;;;;;;17.90;15.50;;;;;;;19.26;82.79;97899.88;106237;1277;25324;-77
2022/08/19 03:48:55;;;;;;;18.10;16.20;;;;;;;19.27;83.05;97900.21;106442;1277;25330;-77
2022/08/19 03:51:31;;;;;;;18.40;15.60;;;;;;;19.25;83.01;97899.48;106650;1277;24109;-77
2022/08/19 03:54:00;;;;;;;17.90;15.20;;;;;;;19.23;83.16;97901.45;106137;1277;22847;-81
2022/08/19 03:56:28;;;;;;;16.50;14.70;;;;;;;19.23;83.32;97903.34;106367;1277;138618;-79
2022/08/19 03:58:57;;;;;;;19.80;15.80;;;;;;;19.25;83.47;97905.83;106078;1277;24262;-80
2022/08/19 04:01:27;;;;;;;18.20;15.60;;;;;;;19.26;83.42;97906.84;106921;1277;139086;-79
2022/08/19 04:03:58;;;;;;;18.80;15.20;;;;;;;19.29;83.49;97906.21;106180;1277;25338;-80
2022/08/19 04:06:28;;;;;;;19.60;14.80;;;;;;;19.31;83.33;97896.00;106394;1275;22572;-79
2022/08/19 04:08:58;;;;;;;16.70;14.90;;;;;;;19.32;83.29;97895.21;106673;1277;139142;-83
2022/08/19 04:11:29;;;;;;;19.30;15.70;;;;;;;19.31;83.25;97891.30;106689;1274;22557;-82
2022/08/19 04:13:56;;;;;;;16.70;15.10;;;;;;;19.32;83.18;97894.75;106281;1274;138448;-81
2022/08/19 04:16:28;;;;;;;17.10;15.00;;;;;;;19.33;83.31;97892.29;105960;1274;25379;-79
2022/08/19 04:19:01;;;;;;;17.10;14.70;;;;;;;19.37;83.56;97887.70;106189;1277;138951;-76
2022/08/19 04:21:29;;;;;;;16.60;14.60;;;;;;;19.39;83.37;97882.98;104919;1277;1749387;-78
2022/08/19 04:23:57;;;;;;;19.20;14.40;;;;;;;19.40;83.42;97881.57;106075;1277;22573;-77
2022/08/19 04:26:28;;;;;;;17.40;15.50;;;;;;;19.42;83.30;97893.07;106358;1276;138506;-77
2022/08/19 04:28:55;;;;;;;16.90;15.20;;;;;;;19.43;83.57;97906.02;106341;1275;22620;-77
2022/08/19 04:31:27;;;;;;;19.10;16.10;;;;;;;19.46;83.50;97898.98;106073;1276;139005;-77
2022/08/19 04:33:56;;;;;;;19.50;15.50;;;;;;;19.49;83.44;97899.13;105921;1277;24390;-77
2022/08/19 04:36:28;;;;;;;21.20;15.10;;;;;;;19.50;83.41;97890.30;106668;1276;22568;-77
2022/08/19 04:39:01;;;;;;;16.00;14.30;;;;;;;19.53;83.36;97890.90;106313;1277;138770;-77
2022/08/19 04:44:09;;;;;;;21.40;15.10;;;;;;;19.60;83.54;97916.24;105899;1277;138635;-77
2022/08/19 04:46:37;;;;;;;17.90;15.00;;;;;;;19.61;83.26;97921.83;106371;1276;25331;-77
2022/08/19 04:49:06;;;;;;;16.80;14.40;;;;;;;19.60;82.66;97925.79;105836;1276;139074;-77
2022/08/19 04:51:34;;;;;;;18.70;15.30;;;;;;;19.58;82.45;97932.54;106184;1276;22617;-77
2022/08/19 04:54:04;;;;;;;19.30;14.80;;;;;;;19.56;82.63;97931.42;106216;1277;22660;-77
2022/08/19 04:56:30;;;;;;;16.80;14.70;;;;;;;19.57;82.85;97932.89;105860;1276;138566;-77
2022/08/19 04:59:03;;;;;;;17.20;15.40;;;;;;;19.60;83.01;97938.76;106018;1277;22684;-77
2022/08/19 05:01:33;;;;;;;15.90;14.40;;;;;;;19.66;83.16;97948.45;106040;1277;138731;-77
2022/08/19 05:04:03;;;;;;;18.50;14.90;;;;;;;19.73;83.22;97952.04;106011;1277;22570;-77
2022/08/19 05:06:34;;;;;;;17.60;14.40;;;;;;;19.81;83.22;97958.20;106214;1277;24281;-77
2022/08/19 05:09:04;;;;;;;15.50;13.80;;;;;;;19.89;83.22;97953.48;106235;1277;138504;-77
2022/08/19 05:11:34;;;;;;;16.20;14.50;;;;;;;19.95;83.10;97948.23;106040;1277;22574;-77
2022/08/19 05:14:02;;;;;;;15.70;14.10;;;;;;;20.02;83.26;97952.56;105879;1277;138592;-78
2022/08/19 05:16:28;;;;;;;17.00;14.80;;;;;;;20.10;83.22;97953.50;106051;1277;22570;-77
2022/08/19 05:24:18;;;;;;;20.50;14.50;;;;;;;20.32;82.74;97952.81;106250;1277;25366;-77
2022/08/19 05:26:47;;;;;;;16.70;13.70;;;;;;;20.37;82.51;97952.95;106237;1277;138631;-77
2022/08/19 05:29:18;;;;;;;15.50;13.90;;;;;;;20.43;82.39;97955.64;106199;1277;25302;-77
2022/08/19 05:31:49;;;;;;;15.30;13.70;;;;;;;20.50;82.49;97955.49;105918;1277;138604;-77
2022/08/19 05:34:24;;;;;;;18.00;14.10;;;;;;;20.56;82.42;97955.27;106276;1276;22593;-77
2022/08/19 05:36:56;;;;;;;15.60;14.00;;;;;;;20.61;82.01;97955.52;106463;1276;22830;-77
2022/08/19 05:39:26;;;;;;;19.10;13.90;;;;;;;20.66;81.89;97950.95;106457;1277;22570;-77
2022/08/19 05:41:59;;;;;;;18.00;14.40;;;;;;;20.73;81.91;97944.32;106828;1277;24321;-77
2022/08/19 05:44:32;;;;;;;16.00;14.00;;;;;;;20.82;81.84;97938.72;106362;1277;139457;-77
2022/08/19 05:47:04;;;;;;;16.80;12.70;;;;;;;20.91;81.61;97943.64;106187;1277;26481;-77
2022/08/19 05:49:34;;;;;;;14.40;12.90;;;;;;;20.98;81.34;97946.67;106233;1277;139355;-77
2022/08/19 05:52:10;;;;;;;14.70;13.20;;;;;;;21.06;81.22;97945.91;106273;1277;22720;-77
2022/08/19 05:54:41;;;;;;;16.90;13.30;;;;;;;21.16;80.98;97949.52;106439;1277;24370;-77
2022/08/19 05:57:10;;;;;;;17.50;13.20;;;;;;;21.26;80.87;97951.85;106253;1277;139146;-77
2022/08/19 05:59:41;;;;;;;19.00;12.70;;;;;;;21.35;80.60;97949.95;106097;1277;24255;-77
2022/08/19 06:02:08;;;;;;;18.20;13.40;;;;;;;21.45;80.06;97945.32;106384;1277;138770;-77
2022/08/19 06:04:37;;;;;;;;;;;;;;;21.53;79.97;97941.02;106481;1277;25294;-76
2022/08/19 06:07:05;;;;;;;15.90;13.30;;;;;;;21.61;79.88;97934.86;106741;1275;124804;-77
2022/08/19 06:09:33;;;;;;;14.30;12.50;;;;;;;21.69;79.86;97931.48;106554;1277;22897;-77
2022/08/19 06:12:02;;;;;;;14.70;12.80;;;;;;;21.78;79.38;97932.00;106417;1277;25429;-77
2022/08/19 06:14:33;;;;;;;15.50;12.40;;;;;;;21.86;78.83;97942.08;106163;1277;138496;-77
2022/08/19 06:17:02;;;;;;;14.20;12.40;;;;;;;21.95;78.59;97944.59;106658;1276;22561;-77
2022/08/19 06:19:30;;;;;;;19.00;12.60;;;;;;;22.04;78.56;97944.15;106650;1277;139084;-76
2022/08/19 06:22:00;;;;;;;17.70;12.20;;;;;;;22.14;78.38;97949.52;106229;1277;24319;-77
2022/08/19 06:24:31;;;;;;;16.60;12.30;;;;;;;22.26;78.00;97950.30;106356;1277;23966;-77
2022/08/19 06:27:05;;;;;;;14.80;12.30;;;;;;;22.37;77.60;97951.46;106179;1276;138647;-77
2022/08/19 06:29:34;;;;;;;14.40;12.10;;;;;;;22.47;77.24;97958.45;106284;1277;22738;-77
2022/08/19 06:32:03;;;;;;;15.20;12.30;;;;;;;22.58;76.98;97961.66;106296;1277;138604;-77
2022/08/19 06:34:34;;;;;;;14.20;12.20;;;;;;;22.67;76.75;97959.95;106095;1277;22553;-77
2022/08/19 06:37:03;;;;;;;15.70;11.80;;;;;;;22.77;76.35;97954.78;105995;1278;139231;-77
2022/08/19 06:39:35;;;;;;;18.20;12.50;;;;;;;22.87;76.14;97952.45;106552;1277;24430;-77
2022/08/19 06:42:06;;;;;;;14.20;11.90;;;;;;;22.98;75.91;97952.45;106292;1277;22708;-77
2022/08/19 06:44:36;;;;;;;14.80;11.70;;;;;;;23.09;75.25;97953.46;106145;1276;139270;-77
2022/08/19 06:47:05;;;;;;;17.50;12.30;;;;;;;23.20;74.90;97961.41;106381;1275;22748;-76
2022/08/19 06:49:35;;;;;;;18.50;12.40;;;;;;;23.31;74.45;97962.30;106245;1277;138753;-76
2022/08/19 06:52:03;;;;;;;15.60;12.10;;;;;;;23.41;74.23;97959.52;106163;1277;23916;-76
2022/08/19 06:54:31;;;;;;;13.40;12.00;;;;;;;23.52;74.21;97964.71;106255;1277;25634;-76
2022/08/19 06:57:04;;;;;;;12.70;11.10;;;;;;;23.63;74.08;97964.29;106366;1277;138563;-76
2022/08/19 06:59:33;;;;;;;14.30;11.90;;;;;;;23.74;73.74;97964.73;106336;1277;25477;-76
2022/08/19 07:02:07;;;;;;;14.00;11.10;;;;;;;23.84;73.58;97968.46;106348;1277;138390;-77
2022/08/19 07:04:38;;;;;;;16.80;11.30;;;;;;;23.96;73.51;97974.34;106220;1277;24436;-76
2022/08/19 07:07:12;;;;;;;17.00;11.90;;;;;;;24.09;73.02;97980.64;106128;1277;139487;-76
2022/08/19 07:09:42;;;;;;;13.90;10.50;;;;;;;24.20;72.53;97982.14;106140;1277;22563;-76
2022/08/19 07:12:14;;;;;;;14.50;11.10;;;;;;;24.32;72.21;97985.31;105968;1277;22624;-76
2022/08/19 07:14:42;;;;;;;12.30;10.90;;;;;;;24.45;71.54;97985.73;105791;1277;138710;-76
2022/08/19 07:17:11;;;;;;;19.90;10.90;;;;;;;24.57;71.30;97979.11;106147;1277;23163;-77
2022/08/19 07:19:39;;;;;;;12.50;9.50;;;;;;;24.67;70.97;97976.19;106217;1277;138648;-77
2022/08/19 07:22:08;;;;;;;11.40;10.20;;;;;;;24.79;70.95;97974.48;106399;1277;23975;-76
2022/08/19 07:24:56;;;;;;;13.90;10.30;;;;;;;24.91;70.52;97976.52;106281;1277;22567;-76
2022/08/19 07:27:36;;;;;;;12.30;10.20;;;;;;;25.06;69.54;97970.35;106271;1277;22569;-77
2022/08/19 07:30:04;;;;;;;11.40;9.70;;;;;;;25.17;69.49;97969.73;106336;1277;22603;-77
2022/08/19 07:32:31;;;;;;;10.70;9.70;;;;;;;25.30;69.32;97970.27;105824;1277;138585;-76
2022/08/19 07:35:03;;;;;;;14.60;10.70;;;;;;;25.42;68.82;97970.45;106151;1277;25487;-77
2022/08/19 07:37:30;;;;;;;12.70;9.90;;;;;;;25.52;68.30;97979.52;106344;1274;138645;-76
2022/08/19 07:39:57;;;;;;;13.20;10.30;;;;;;;25.62;67.28;97986.30;106329;1274;23923;-76
2022/08/19 07:42:24;;;;;;;13.80;9.70;;;;;;;25.72;67.03;97988.64;105986;1277;23956;-77
2022/08/19 07:44:51;;;;;;;14.70;10.70;;;;;;;25.82;66.57;97982.60;106323;1277;138426;-77
2022/08/19 07:47:18;;;;;;;12.70;9.40;;;;;;;25.94;66.57;97985.40;106140;1277;22654;-76
2022/08/19 07:49:45;;;;;;;10.40;9.30;;;;;;;26.05;66.05;97987.46;106345;1273;138303;-76
2022/08/19 07:52:12;;;;;;;13.00;10.30;;;;;;;26.15;65.18;97985.88;106003;1277;23889;-76
2022/08/19 07:54:40;;;;;;;16.70;10.70;;;;;;;26.24;64.26;97989.63;105993;1277;25509;-76
2022/08/19 07:57:08;;;;;;;14.90;10.20;;;;;;;26.35;64.37;97988.52;106118;1277;138074;-76
2022/08/19 07:59:36;;;;;;;13.40;10.30;;;;;;;26.45;64.08;97992.11;105990;1277;24266;-75
2022/08/19 08:02:06;;;;;;;13.90;9.90;;;;;;;26.55;63.58;97994.67;105747;1277;138009;-75
2022/08/19 08:09:55;;;;;;;14.60;10.30;;;;;;;26.90;62.51;98007.70;106567;1277;25417;-75
2022/08/19 08:12:30;;;;;;;12.90;9.90;;;;;;;27.03;62.41;98007.30;105992;1277;25426;-76
2022/08/19 08:15:03;;;;;;;12.00;10.10;;;;;;;27.15;61.49;98006.66;106603;1276;137936;-75
2022/08/19 08:17:31;;;;;;;16.50;10.10;;;;;;;27.26;60.79;98006.92;106849;1276;24224;-76
2022/08/19 08:19:57;;;;;;;11.50;9.50;;;;;;;27.40;61.04;98010.73;106197;1276;137755;-75
2022/08/19 08:25:09;;;;;;;15.00;10.30;;;;;;;27.68;59.94;98010.57;106229;1277;138099;-77
2022/08/19 08:27:41;;;;;;;13.00;10.00;;;;;;;27.81;59.12;98008.11;106253;1277;24256;-76
2022/08/19 08:30:14;;;;;;;17.60;10.50;;;;;;;27.94;58.76;98005.58;106617;1277;23359;-77
2022/08/19 08:32:42;;;;;;;16.10;10.30;;;;;;;28.07;58.97;98010.29;106705;1276;138384;-76
2022/08/19 08:35:13;;;;;;;17.40;10.50;;;;;;;28.21;58.40;98009.98;106806;1276;23012;-76
2022/08/19 08:37:40;;;;;;;16.60;9.50;;;;;;;28.34;58.03;98010.83;106613;1276;137937;-76
2022/08/19 08:40:36;;;;;;;17.60;10.60;;;;;;;28.47;57.94;98013.69;106414;1276;24270;-76
2022/08/19 08:43:47;;;;;;;13.50;9.40;;;;;;;28.64;57.95;98012.29;106648;1277;138103;-76
2022/08/19 08:46:34;;;;;;;20.60;10.00;;;;;;;28.85;56.89;98009.41;106634;1277;22614;-76
2022/08/19 08:49:05;;;;;;;15.60;10.00;;;;;;;28.99;56.22;98011.37;106790;1277;138078;-76
2022/08/19 08:51:44;;;;;;;17.60;10.30;;;;;;;29.12;55.78;98009.88;106339;1277;22550;-76
2022/08/19 08:54:17;;;;;;;17.90;10.40;;;;;;;29.22;54.83;98007.31;106642;1277;22554;-75
2022/08/19 08:56:46;;;;;;;15.30;10.10;;;;;;;29.32;54.73;98006.23;106732;1277;137880;-75
2022/08/19 08:59:30;;;;;;;16.00;10.40;;;;;;;29.43;54.56;98009.82;106958;1277;24589;-75
2022/08/19 09:02:00;;;;;;;20.20;10.30;;;;;;;29.56;54.14;98006.30;106783;1274;137844;-75
2022/08/19 09:04:28;;;;;;;15.20;10.80;;;;;;;29.71;53.39;98002.30;106609;1276;22574;-75
2022/08/19 09:07:38;;;;;;;15.80;10.70;;;;;;;29.86;53.15;98008.56;106277;1276;138511;-76
2022/08/19 09:10:28;;;;;;;14.40;9.70;;;;;;;30.03;52.33;98004.17;106265;1277;24649;-75
2022/08/19 09:13:17;;;;;;;16.00;10.20;;;;;;;30.16;51.69;97995.23;106612;1277;137894;-76
2022/08/19 09:15:54;;;;;;;18.50;10.00;;;;;;;30.28;50.85;97992.44;106259;1277;25290;-75
2022/08/19 09:18:22;;;;;;;12.30;9.70;;;;;;;30.40;50.12;97994.67;106775;1276;22546;-75
2022/08/19 09:20:48;;;;;;;12.90;9.30;;;;;;;30.53;50.40;97996.05;106603;1275;137658;-75
2022/08/19 09:23:16;;;;;;;15.80;9.30;;;;;;;30.65;50.39;97992.13;106919;1274;25316;-76
2022/08/19 09:25:43;;;;;;;16.80;10.00;;;;;;;30.79;49.77;97989.72;106451;1274;137657;-75
2022/08/19 09:28:11;;;;;;;18.00;10.70;;;;;;;30.95;49.75;97987.77;106224;1274;23525;-77
2022/08/19 09:30:41;;;;;;;;;;;;;;;31.10;49.43;97986.08;105983;1274;25274;-76
2022/08/19 09:33:08;;;;;;;15.30;9.00;;;;;;;31.26;49.23;97979.65;106276;1274;124077;-76
2022/08/19 09:35:36;;;;;;;18.70;8.90;;;;;;;31.42;48.81;97976.96;106238;1277;24263;-76
2022/08/19 09:38:03;;;;;;;17.60;9.50;;;;;;;31.56;48.80;97979.06;106558;1274;137932;-76
2022/08/19 09:40:31;;;;;;;14.80;9.30;;;;;;;31.68;46.43;97972.02;106090;1277;22585;-76
2022/08/19 09:43:02;;;;;;;13.20;9.70;;;;;;;31.78;46.37;97969.63;106216;1274;137946;-76
2022/08/19 09:45:29;;;;;;;13.30;9.10;;;;;;;31.92;46.88;97971.58;106309;1277;24293;-76
2022/08/19 09:47:57;;;;;;;13.70;9.30;;;;;;;32.04;46.30;97970.16;106668;1274;22649;-76
2022/08/19 09:50:24;;;;;;;18.60;9.60;;;;;;;32.12;45.88;97968.10;106524;1276;137618;-76
2022/08/19 09:52:52;;;;;;;12.70;9.30;;;;;;;32.24;45.44;97967.21;106235;1277;25264;-76
2022/08/19 09:55:19;;;;;;;15.70;9.10;;;;;;;32.31;44.49;97962.78;106799;1274;137965;-76
2022/08/19 09:57:46;;;;;;;15.40;9.70;;;;;;;32.43;44.96;97962.86;106325;1274;22573;-76
2022/08/19 10:00:13;;;;;;;16.50;10.00;;;;;;;32.57;45.06;97965.19;106075;1277;23166;-76
2022/08/19 10:02:40;;;;;;;15.50;9.70;;;;;;;32.70;45.10;97964.23;107058;1276;137814;-76
2022/08/19 10:07:49;;;;;;;21.90;9.40;;;;;;;33.01;43.71;97956.90;106708;1274;137779;-76
2022/08/19 10:10:16;;;;;;;20.30;10.40;;;;;;;33.13;43.88;97958.73;107043;1274;22746;-75
2022/08/19 10:12:47;;;;;;;17.10;10.40;;;;;;;33.24;44.24;97954.66;106791;1276;24272;-75
2022/08/19 10:15:14;;;;;;;21.30;10.30;;;;;;;33.36;44.28;97958.96;106634;1277;137714;-75
2022/08/19 10:17:41;;;;;;;18.40;9.80;;;;;;;33.51;43.78;97962.12;106762;1276;23013;-76
2022/08/19 10:20:09;;;;;;;20.10;9.60;;;;;;;33.63;43.29;97961.00;105857;1274;137977;-75
2022/08/19 10:22:37;;;;;;;16.30;8.80;;;;;;;33.72;41.81;97956.63;106089;1277;25273;-75
2022/08/19 10:25:05;;;;;;;16.10;8.50;;;;;;;33.81;41.58;97954.88;106383;1276;138303;-76
2022/08/19 10:27:31;;;;;;;;;;;;;;;33.92;41.28;97950.85;106890;1276;22721;-76
2022/08/19 10:29:59;;;;;;;19.60;9.10;;;;;;;33.98;40.59;97954.84;106742;1276;25264;-75
2022/08/19 10:32:26;;;;;;;17.20;8.80;;;;;;;34.04;40.87;97950.04;106661;1274;137789;-76
2022/08/19 10:34:53;;;;;;;17.40;8.40;;;;;;;34.12;40.07;97952.96;106273;1276;25635;-75
2022/08/19 10:37:20;;;;;;;15.90;8.60;;;;;;;34.17;39.60;97952.60;106508;1274;137990;-75
2022/08/19 10:39:48;;;;;;;14.60;8.60;;;;;;;34.21;39.56;97945.00;106427;1274;25293;-76
2022/08/19 10:42:16;;;;;;;11.00;8.50;;;;;;;34.26;39.78;97942.38;107213;1274;22684;-75
2022/08/19 10:44:46;;;;;;;10.20;7.90;;;;;;;34.33;39.94;97946.92;106210;1274;138105;-76
2022/08/19 10:47:15;;;;;;;10.60;8.20;;;;;;;34.41;39.76;97945.48;106022;1276;22550;-76
2022/08/19 10:57:46;;;;;;;12.80;7.00;;;;;;;34.54;38.62;97946.97;106110;1277;22545;-76
2022/08/19 11:00:14;;;;;;;10.50;7.50;;;;;;;34.66;38.19;97948.46;106275;1276;23372;-74
2022/08/19 11:02:42;;;;;;;8.50;7.00;;;;;;;34.73;38.41;97946.33;106254;1276;137736;-74
2022/08/19 11:05:12;;;;;;;11.50;7.20;;;;;;;34.79;37.97;97947.80;106241;1276;22604;-75
2022/08/19 11:07:40;;;;;;;7.90;7.20;;;;;;;34.87;37.46;97939.31;106676;1276;138285;-76
2022/08/19 11:10:13;;;;;;;14.50;7.30;;;;;;;34.97;37.56;97937.74;106485;1276;22538;-76
2022/08/19 11:12:42;;;;;;;9.40;7.00;;;;;;;35.09;37.40;97937.76;106727;1276;22568;-76
2022/08/19 11:15:10;;;;;;;15.60;7.40;;;;;;;35.20;36.95;97932.48;106275;1276;137492;-76
2022/08/19 11:17:43;;;;;;;14.90;8.00;;;;;;;35.31;36.70;97929.17;106210;1277;25342;-76
2022/08/19 11:20:14;;;;;;;15.40;7.30;;;;;;;35.42;37.01;97927.10;106385;1277;137566;-76
2022/08/19 11:22:42;;;;;;;12.20;7.80;;;;;;;35.51;36.94;97924.70;106067;1277;22563;-75
2022/08/19 11:25:10;;;;;;;7.70;6.90;;;;;;;35.60;36.22;97921.34;105856;1277;137755;-75
2022/08/19 11:27:42;;;;;;;14.20;7.80;;;;;;;35.66;35.97;97921.64;105954;1276;22566;-75
2022/08/19 11:30:11;;;;;;;9.50;7.20;;;;;;;35.71;35.48;97920.95;106107;1277;24648;-76
2022/08/19 11:32:38;;;;;;;7.90;7.00;;;;;;;35.73;35.58;97919.64;105954;1276;137476;-76
2022/08/19 11:35:05;;;;;;;8.50;7.10;;;;;;;35.78;35.55;97919.66;106183;1277;25451;-76
2022/08/19 11:37:38;;;;;;;8.80;7.20;;;;;;;35.84;35.32;97920.13;105886;1277;137707;-75
2022/08/19 11:40:06;;;;;;;12.80;7.10;;;;;;;35.90;35.16;97919.14;106066;1277;25675;-75
2022/08/19 11:45:14;;;;;;;10.20;6.90;;;;;;;36.08;35.42;97909.94;106372;1276;137429;-75
2022/08/19 11:47:41;;;;;;;9.70;7.20;;;;;;;36.13;34.69;97907.02;105820;1279;24961;-76
2022/08/19 11:50:09;;;;;;;11.30;7.20;;;;;;;36.18;35.10;97902.73;105828;1279;137534;-75
2022/08/19 11:52:36;;;;;;;9.60;7.60;;;;;;;36.25;35.85;97902.64;106607;1276;24300;-75
2022/08/19 11:55:03;;;;;;;9.30;6.80;;;;;;;36.28;35.67;97903.15;106347;1275;138473;-74